createdAt,value
2019-02-21T00:04:19.929Z,3.91
2019-02-21T00:09:25.495Z,3.96
2019-02-21T00:14:30.944Z,3.95
2019-02-21T00:19:36.490Z,3.89
2019-02-21T00:24:41.573Z,3.79
2019-02-21T00:29:47.337Z,3.74
2019-02-21T00:34:52.785Z,3.71
2019-02-21T00:39:58.253Z,3.70
2019-02-21T00:45:03.346Z,3.72
2019-02-21T00:50:08.516Z,3.70
2019-02-21T00:55:13.991Z,3.74
2019-02-21T01:00:19.180Z,3.82
2019-02-21T01:05:24.344Z,3.92
2019-02-21T01:10:30.536Z,3.96
2019-02-21T01:15:35.719Z,3.95
2019-02-21T01:20:41.189Z,3.94
2019-02-21T01:25:46.629Z,3.87
2019-02-21T01:30:56.946Z,3.87
2019-02-21T01:35:59.559Z,3.92
2019-02-21T01:41:05.079Z,3.93
2019-02-21T01:46:10.566Z,3.93
2019-02-21T01:51:15.655Z,3.90
2019-02-21T01:56:20.685Z,3.88
2019-02-21T02:01:25.890Z,3.84
2019-02-21T02:06:30.962Z,3.81
2019-02-21T02:11:36.708Z,3.80
2019-02-21T02:16:41.866Z,3.77
2019-02-21T02:21:47.160Z,3.75
2019-02-21T02:26:52.162Z,3.72
2019-02-21T02:31:57.654Z,3.69
2019-02-21T02:37:02.653Z,3.71
2019-02-21T02:42:08.191Z,3.75
2019-02-21T02:47:15.141Z,3.72
2019-02-21T02:52:20.551Z,3.68
2019-02-21T02:57:26.114Z,3.69
2019-02-21T03:02:31.266Z,3.75
2019-02-21T03:07:36.425Z,3.77
2019-02-21T03:12:41.583Z,3.73
2019-02-21T03:17:46.759Z,3.78
2019-02-21T03:22:51.785Z,3.75
2019-02-21T03:27:56.951Z,3.71
2019-02-21T03:33:02.926Z,3.66
2019-02-21T03:38:08.225Z,3.63
2019-02-21T03:43:13.403Z,3.60
2019-02-21T03:48:19.814Z,3.57
2019-02-21T03:53:24.895Z,3.60
2019-02-21T03:58:30.020Z,3.60
2019-02-21T04:03:35.563Z,3.54
2019-02-21T04:08:40.710Z,3.47
2019-02-21T04:13:45.980Z,3.41
2019-02-21T04:18:51.121Z,3.37
2019-02-21T04:23:57.073Z,3.31
2019-02-21T04:29:02.454Z,3.26
2019-02-21T04:34:07.456Z,3.20
2019-02-21T04:39:12.752Z,3.21
2019-02-21T04:44:17.752Z,3.24
2019-02-21T04:49:23.243Z,3.22
2019-02-21T04:54:29.360Z,3.26
2019-02-21T04:59:34.436Z,3.28
2019-02-21T05:04:42.005Z,3.30
2019-02-21T05:09:57.657Z,3.29
2019-02-21T05:14:54.932Z,3.29
2019-02-21T05:20:00.458Z,3.34
2019-02-21T05:25:05.923Z,3.35
2019-02-21T05:30:14.682Z,3.40
2019-02-21T05:35:37.244Z,3.42
2019-02-21T05:41:07.657Z,3.39
2019-02-21T05:46:37.510Z,3.34
2019-02-21T05:51:49.968Z,3.27
2019-02-21T05:57:04.370Z,3.26
2019-02-21T06:02:53.087Z,3.24
2019-02-21T06:08:01.173Z,3.23
2019-02-21T06:13:27.488Z,3.19
2019-02-21T06:18:49.843Z,3.16
2019-02-21T06:24:04.418Z,3.15
2019-02-21T06:29:28.501Z,3.14
2019-02-21T06:34:33.923Z,3.18
2019-02-21T06:39:39.029Z,3.27
2019-02-21T06:44:44.539Z,3.36
2019-02-21T06:49:49.918Z,3.47
2019-02-21T06:54:55.343Z,3.59
2019-02-21T07:00:00.443Z,3.65
2019-02-21T07:05:05.959Z,3.74
2019-02-21T07:10:11.301Z,3.84
2019-02-21T07:15:17.119Z,3.92
2019-02-21T07:20:22.182Z,3.99
2019-02-21T07:25:55.090Z,4.07
2019-02-21T07:31:00.098Z,4.17
2019-02-21T07:36:05.683Z,4.31
2019-02-21T07:41:11.000Z,4.45
2019-02-21T07:46:16.764Z,4.55
2019-02-21T07:51:22.051Z,4.67
2019-02-21T07:56:27.234Z,4.78
2019-02-21T08:01:32.323Z,4.88
2019-02-21T08:06:37.480Z,5.01
2019-02-21T08:11:42.739Z,5.12
2019-02-21T08:16:47.950Z,5.27
2019-02-21T08:21:53.636Z,5.41
2019-02-21T08:26:59.387Z,5.60
2019-02-21T08:32:04.948Z,5.66
2019-02-21T08:37:11.381Z,5.79
2019-02-21T08:42:16.842Z,5.89
2019-02-21T08:47:22.271Z,5.98
2019-02-21T08:52:30.008Z,6.16
2019-02-21T08:57:34.560Z,6.24
2019-02-21T09:02:39.804Z,6.26
2019-02-21T09:07:46.643Z,6.29
2019-02-21T09:12:52.091Z,6.36
2019-02-21T09:17:57.327Z,6.55
2019-02-21T09:23:03.154Z,6.84
2019-02-21T09:28:08.343Z,7.18
2019-02-21T09:33:17.550Z,7.31
2019-02-21T09:38:20.473Z,7.41
2019-02-21T09:43:25.578Z,7.42
2019-02-21T09:48:31.374Z,7.53
2019-02-21T09:53:36.888Z,7.58
2019-02-21T09:58:42.683Z,7.70
2019-02-21T10:03:47.915Z,7.80
2019-02-21T10:08:53.084Z,7.87
2019-02-21T10:13:58.681Z,8.01
2019-02-21T10:19:04.188Z,8.12
2019-02-21T10:24:10.262Z,8.19
2019-02-21T10:29:15.791Z,8.25
2019-02-21T10:34:21.942Z,8.40
2019-02-21T10:39:27.184Z,8.51
2019-02-21T10:44:32.407Z,8.80
2019-02-21T10:49:37.512Z,8.89
2019-02-21T10:54:42.820Z,9.06
2019-02-21T10:59:47.977Z,9.22
2019-02-21T11:04:55.036Z,9.26
2019-02-21T11:10:00.013Z,9.15
2019-02-21T11:15:07.152Z,9.14
2019-02-21T11:20:14.553Z,9.21
2019-02-21T11:25:20.754Z,9.29
2019-02-21T11:30:25.923Z,9.23
2019-02-21T11:35:31.359Z,9.10
2019-02-21T11:40:37.546Z,8.94
2019-02-21T11:45:53.151Z,8.84
2019-02-21T11:50:50.803Z,8.81
2019-02-21T11:55:55.993Z,8.99
2019-02-21T12:01:01.265Z,9.17
2019-02-21T12:06:08.136Z,9.26
2019-02-21T12:11:13.371Z,9.26
2019-02-21T12:16:18.543Z,9.38
2019-02-21T12:21:23.767Z,9.81
2019-02-21T12:26:29.614Z,9.94
2019-02-21T12:31:34.784Z,10.07
2019-02-21T12:36:40.951Z,10.26
2019-02-21T12:41:46.228Z,10.28
2019-02-21T12:46:51.954Z,10.19
2019-02-21T12:51:57.568Z,10.05
2019-02-21T12:57:03.165Z,10.07
2019-02-21T13:02:08.401Z,10.45
2019-02-21T13:07:13.639Z,10.53
2019-02-21T13:12:18.805Z,10.52
2019-02-21T13:17:24.340Z,10.68
2019-02-21T13:22:29.860Z,10.65
2019-02-21T13:27:35.071Z,10.67
2019-02-21T13:32:40.234Z,10.54
2019-02-21T13:37:45.939Z,10.46
2019-02-21T13:42:51.190Z,10.20
2019-02-21T13:47:56.337Z,9.94
2019-02-21T13:53:02.081Z,9.85
2019-02-21T13:58:07.237Z,9.77
2019-02-21T14:03:12.536Z,9.86
2019-02-21T14:08:18.154Z,10.01
2019-02-21T14:13:23.433Z,10.00
2019-02-21T14:18:28.981Z,9.94
2019-02-21T14:23:34.205Z,9.93
2019-02-21T14:28:39.382Z,9.95
2019-02-21T14:33:44.546Z,10.06
2019-02-21T14:38:50.265Z,10.12
2019-02-21T14:43:56.674Z,10.08
2019-02-21T14:49:02.302Z,9.92
2019-02-21T14:54:07.918Z,9.83
2019-02-21T14:59:13.380Z,9.78
2019-02-21T15:04:18.840Z,9.77
2019-02-21T15:09:24.002Z,9.69
2019-02-21T15:14:29.597Z,9.67
2019-02-21T15:19:34.763Z,9.66
2019-02-21T15:24:40.081Z,9.64
2019-02-21T15:29:45.554Z,9.61
2019-02-21T15:34:51.371Z,9.64
2019-02-21T15:39:56.573Z,9.62
2019-02-21T15:45:02.698Z,9.60
2019-02-21T15:50:10.004Z,9.58
2019-02-21T15:55:15.791Z,9.54
2019-02-21T16:00:21.062Z,9.53
2019-02-21T16:05:26.693Z,9.49
2019-02-21T16:10:31.859Z,9.48
2019-02-21T16:15:37.021Z,9.44
2019-02-21T16:20:42.206Z,9.36
2019-02-21T16:25:48.057Z,9.40
2019-02-21T16:30:53.782Z,9.34
2019-02-21T16:35:59.140Z,9.37
2019-02-21T16:41:05.182Z,9.31
2019-02-21T16:46:10.430Z,9.28
2019-02-21T16:51:16.285Z,9.27
2019-02-21T16:56:21.548Z,9.25
2019-02-21T17:01:26.818Z,9.22
2019-02-21T17:06:33.060Z,9.16
2019-02-21T17:11:38.746Z,9.12
2019-02-21T17:16:43.911Z,9.04
2019-02-21T17:21:49.113Z,9.04
2019-02-21T17:26:55.230Z,9.19
2019-02-21T17:32:00.610Z,9.23
2019-02-21T17:37:10.215Z,9.20
2019-02-21T17:42:16.526Z,9.34
2019-02-21T17:47:22.705Z,9.29
2019-02-21T17:52:27.793Z,9.37
2019-02-21T17:57:33.019Z,9.32
2019-02-21T18:02:38.728Z,9.28
2019-02-21T18:07:43.994Z,9.29
2019-02-21T18:12:49.269Z,9.24
2019-02-21T18:17:54.830Z,9.30
2019-02-21T18:23:00.794Z,9.28
2019-02-21T18:28:07.111Z,9.26
2019-02-21T18:33:12.703Z,9.20
2019-02-21T18:38:17.902Z,9.19
2019-02-21T18:43:23.222Z,9.12
2019-02-21T18:48:28.645Z,9.05
2019-02-21T18:53:33.978Z,9.01
2019-02-21T18:58:39.769Z,9.06
2019-02-21T19:03:45.014Z,9.10
2019-02-21T19:08:50.519Z,9.09
2019-02-21T19:13:56.032Z,9.13
2019-02-21T19:19:01.271Z,9.02
2019-02-21T19:24:06.850Z,9.09
2019-02-21T19:29:12.224Z,9.08
2019-02-21T19:34:19.068Z,9.03
2019-02-21T19:39:25.078Z,9.00
2019-02-21T19:44:30.424Z,8.94
2019-02-21T19:49:36.089Z,8.87
2019-02-21T19:54:41.653Z,8.68
2019-02-21T19:59:48.038Z,8.73
2019-02-21T20:04:53.190Z,8.69
2019-02-21T20:09:58.650Z,8.70
2019-02-21T20:15:04.141Z,8.67
2019-02-21T20:20:11.051Z,8.67
2019-02-21T20:25:16.725Z,8.52
2019-02-21T20:30:22.192Z,8.58
2019-02-21T20:35:27.532Z,8.56
2019-02-21T20:40:33.598Z,8.71
2019-02-21T20:45:38.921Z,8.78
2019-02-21T20:50:44.283Z,8.76
2019-02-21T20:55:49.577Z,8.82
2019-02-21T21:00:54.867Z,8.85
2019-02-21T21:06:00.150Z,8.91
2019-02-21T21:11:05.431Z,8.99
2019-02-21T21:16:10.691Z,9.06
2019-02-21T21:21:15.858Z,9.03
2019-02-21T21:26:21.287Z,8.96
2019-02-21T21:31:26.977Z,8.92
2019-02-21T21:36:32.567Z,8.91
2019-02-21T21:41:37.763Z,8.92
2019-02-21T21:46:42.963Z,8.94
2019-02-21T21:51:48.608Z,8.85
2019-02-21T21:56:53.854Z,8.94
2019-02-21T22:01:59.296Z,8.92
2019-02-21T22:07:04.598Z,8.92
2019-02-21T22:12:10.181Z,8.82
2019-02-21T22:17:15.737Z,8.80
2019-02-21T22:22:21.997Z,8.79
2019-02-21T22:27:27.563Z,8.83
2019-02-21T22:32:33.330Z,8.82
2019-02-21T22:37:39.988Z,8.85
2019-02-21T22:42:46.652Z,8.85
2019-02-21T22:47:51.812Z,8.85
2019-02-21T22:52:57.299Z,8.77
2019-02-21T22:58:02.552Z,8.75
2019-02-21T23:03:08.256Z,8.73
2019-02-21T23:08:47.673Z,8.71
2019-02-21T23:13:53.502Z,8.65
2019-02-21T23:18:58.766Z,8.45
2019-02-21T23:24:03.993Z,8.32
2019-02-21T23:29:09.159Z,8.23
2019-02-21T23:34:28.522Z,8.13
2019-02-21T23:39:38.240Z,8.11
2019-02-21T23:44:40.600Z,8.21
2019-02-21T23:49:46.133Z,8.28
2019-02-21T23:54:51.288Z,8.29
2019-02-21T23:59:56.877Z,8.29
